createdAt,value
2022-07-30T00:00:42.510Z,1.45
2022-07-30T00:03:13.856Z,1.90
2022-07-30T00:05:43.196Z,3.28
2022-07-30T00:08:13.883Z,2.33
2022-07-30T00:10:43.920Z,2.28
2022-07-30T00:13:15.295Z,1.98
2022-07-30T00:15:44.489Z,3.63
2022-07-30T00:18:16.028Z,10.70
2022-07-30T00:20:45.770Z,1.20
2022-07-30T00:23:15.661Z,4.22
2022-07-30T00:25:45.250Z,1.83
2022-07-30T00:28:14.401Z,1.35
2022-07-30T00:30:43.678Z,3.40
2022-07-30T00:33:15.039Z,2.70
2022-07-30T00:35:45.273Z,1.50
2022-07-30T00:38:15.390Z,4.75
2022-07-30T00:40:44.657Z,2.00
2022-07-30T00:43:18.158Z,3.92
2022-07-30T00:45:47.453Z,3.65
2022-07-30T00:48:18.993Z,4.18
2022-07-30T00:50:48.214Z,2.58
2022-07-30T00:53:17.751Z,1.80
2022-07-30T00:55:47.025Z,2.78
2022-07-30T00:58:16.317Z,2.53
2022-07-30T01:00:46.122Z,2.80
2022-07-30T01:03:15.307Z,3.40
2022-07-30T01:05:46.396Z,2.65
2022-07-30T01:08:16.394Z,2.67
2022-07-30T01:10:47.067Z,5.95
2022-07-30T01:13:16.354Z,2.03
2022-07-30T01:15:45.977Z,2.75
2022-07-30T01:18:17.729Z,1.33
2022-07-30T01:23:27.182Z,1.75
2022-07-30T01:26:03.888Z,1.55
2022-07-30T01:28:38.518Z,3.10
2022-07-30T01:31:13.376Z,2.67
2022-07-30T01:33:46.333Z,1.30
2022-07-30T01:36:19.954Z,4.68
2022-07-30T01:38:53.096Z,1.35
2022-07-30T01:41:26.021Z,1.95
2022-07-30T01:43:56.628Z,1.77
2022-07-30T01:46:27.218Z,2.40
2022-07-30T01:48:59.281Z,3.10
2022-07-30T01:51:37.408Z,2.97
2022-07-30T01:54:10.126Z,4.75
2022-07-30T01:56:44.947Z,4.07
2022-07-30T01:59:16.746Z,1.77
2022-07-30T02:01:52.071Z,3.90
2022-07-30T02:04:21.681Z,5.13
2022-07-30T02:06:59.708Z,4.78
2022-07-30T02:09:36.140Z,3.55
2022-07-30T02:12:32.026Z,5.90
2022-07-30T02:15:16.946Z,3.72
2022-07-30T02:17:56.794Z,4.05
2022-07-30T02:20:31.288Z,6.18
2022-07-30T02:23:05.039Z,6.00
2022-07-30T02:25:38.825Z,8.88
2022-07-30T02:28:13.387Z,4.63
2022-07-30T02:30:49.009Z,3.38
2022-07-30T02:33:21.225Z,3.00
2022-07-30T02:35:57.221Z,3.63
2022-07-30T02:38:28.746Z,4.13
2022-07-30T02:41:01.127Z,2.42
2022-07-30T02:43:36.142Z,3.97
2022-07-30T02:46:07.943Z,5.35
2022-07-30T02:48:59.395Z,2.83
2022-07-30T02:54:00.516Z,2.58
2022-07-30T02:56:31.327Z,2.78
2022-07-30T02:59:05.272Z,8.68
2022-07-30T03:01:35.956Z,2.45
2022-07-30T03:04:06.990Z,7.97
2022-07-30T03:06:38.215Z,3.03
2022-07-30T03:09:07.697Z,3.53
2022-07-30T03:11:39.257Z,4.67
2022-07-30T03:14:10.832Z,3.65
2022-07-30T03:16:43.838Z,3.05
2022-07-30T03:19:14.445Z,4.53
2022-07-30T03:21:44.535Z,1.92
2022-07-30T03:24:15.891Z,2.53
2022-07-30T03:26:46.573Z,4.32
2022-07-30T03:29:22.182Z,2.30
2022-07-30T03:31:52.568Z,3.15
2022-07-30T03:34:24.608Z,5.07
2022-07-30T03:36:54.655Z,2.55
2022-07-30T03:39:25.017Z,5.15
2022-07-30T03:41:55.683Z,4.95
2022-07-30T03:44:29.761Z,2.10
2022-07-30T03:47:03.629Z,2.58
2022-07-30T03:49:36.900Z,2.00
2022-07-30T03:52:09.078Z,5.40
2022-07-30T03:54:38.785Z,2.90
2022-07-30T03:57:28.868Z,4.13
2022-07-30T04:00:00.369Z,4.22
2022-07-30T04:02:29.574Z,3.97
2022-07-30T04:05:24.849Z,2.40
2022-07-30T04:07:55.551Z,3.13
2022-07-30T04:10:25.999Z,6.25
2022-07-30T04:13:01.139Z,2.65
2022-07-30T04:16:05.740Z,2.85
2022-07-30T04:18:36.742Z,2.92
2022-07-30T04:21:17.237Z,2.25
2022-07-30T04:24:03.250Z,3.50
2022-07-30T04:26:38.138Z,2.63
2022-07-30T04:29:09.588Z,2.42
2022-07-30T04:31:45.916Z,4.45
2022-07-30T04:34:48.563Z,2.65
2022-07-30T04:37:24.424Z,5.30
2022-07-30T04:39:56.285Z,4.93
2022-07-30T04:45:12.389Z,3.03
2022-07-30T04:47:55.290Z,1.77
2022-07-30T04:53:19.239Z,4.60
2022-07-30T04:55:56.229Z,2.15
2022-07-30T04:58:30.367Z,4.03
2022-07-30T05:01:01.541Z,2.40
2022-07-30T05:03:37.327Z,5.05
2022-07-30T05:06:08.480Z,5.07
2022-07-30T05:08:41.600Z,3.17
2022-07-30T05:11:14.736Z,2.60
2022-07-30T05:13:46.108Z,1.83
2022-07-30T05:16:17.773Z,3.25
2022-07-30T05:18:49.500Z,3.72
2022-07-30T05:21:18.802Z,2.00
2022-07-30T05:23:50.875Z,1.83
2022-07-30T05:26:32.495Z,9.60
2022-07-30T05:29:04.113Z,2.30
2022-07-30T05:31:50.643Z,3.40
2022-07-30T05:34:23.042Z,2.55
2022-07-30T05:36:54.236Z,2.60
2022-07-30T05:39:24.146Z,1.92
2022-07-30T05:42:12.092Z,2.63
2022-07-30T05:44:49.497Z,2.25
2022-07-30T05:47:20.745Z,2.45
2022-07-30T05:49:54.697Z,1.50
2022-07-30T05:52:25.077Z,3.08
2022-07-30T05:54:59.353Z,1.23
2022-07-30T05:57:52.734Z,3.10
2022-07-30T06:00:22.594Z,2.67
2022-07-30T06:02:55.502Z,3.20
2022-07-30T06:05:46.684Z,3.28
2022-07-30T06:08:16.058Z,1.88
2022-07-30T06:10:45.300Z,2.38
2022-07-30T06:13:14.986Z,1.85
2022-07-30T06:15:44.307Z,1.77
2022-07-30T06:18:13.589Z,5.78
2022-07-30T06:20:51.860Z,4.70
2022-07-30T06:23:40.022Z,3.83
2022-07-30T06:26:20.017Z,4.80
2022-07-30T06:28:49.538Z,4.55
2022-07-30T06:31:24.805Z,2.70
2022-07-30T06:33:54.677Z,2.92
2022-07-30T06:36:26.816Z,3.85
2022-07-30T06:39:04.891Z,2.08
2022-07-30T06:41:57.355Z,1.75
2022-07-30T06:44:31.163Z,2.25
2022-07-30T06:47:25.782Z,1.42
2022-07-30T06:49:56.637Z,2.40
2022-07-30T06:52:28.838Z,1.48
2022-07-30T06:54:58.779Z,2.40
2022-07-30T06:57:50.822Z,2.42
2022-07-30T07:00:49.162Z,2.70
2022-07-30T07:03:18.859Z,2.30
2022-07-30T07:05:49.858Z,1.05
2022-07-30T07:08:21.401Z,5.00
2022-07-30T07:10:58.428Z,1.35
2022-07-30T07:13:32.938Z,2.65
2022-07-30T07:16:04.814Z,2.78
2022-07-30T07:18:34.491Z,2.80
2022-07-30T07:21:07.936Z,2.15
2022-07-30T07:23:41.992Z,1.45
2022-07-30T07:26:32.893Z,2.38
2022-07-30T07:29:05.254Z,3.93
2022-07-30T07:32:06.390Z,0.98
2022-07-30T07:34:25.563Z,2.90
2022-07-30T07:36:55.389Z,2.95
2022-07-30T07:39:27.556Z,0.98
2022-07-30T07:41:57.958Z,1.50
2022-07-30T07:44:29.910Z,1.52
2022-07-30T07:46:59.920Z,2.90
2022-07-30T07:49:34.281Z,4.53
2022-07-30T07:52:04.221Z,2.92
2022-07-30T07:54:37.345Z,1.85
2022-07-30T07:57:10.561Z,4.60
2022-07-30T07:59:44.734Z,3.85
2022-07-30T08:02:22.016Z,1.58
2022-07-30T08:05:00.520Z,6.70
2022-07-30T08:07:38.893Z,4.30
2022-07-30T08:10:36.395Z,2.80
2022-07-30T08:13:51.458Z,2.83
2022-07-30T08:16:32.379Z,1.83
2022-07-30T08:19:11.722Z,3.13
2022-07-30T08:21:43.459Z,2.33
2022-07-30T08:24:12.922Z,3.00
2022-07-30T08:26:45.479Z,2.17
2022-07-30T08:29:17.240Z,3.53
2022-07-30T08:31:48.510Z,1.45
2022-07-30T08:34:19.885Z,1.50
2022-07-30T08:36:55.836Z,4.47
2022-07-30T08:39:25.376Z,1.90
2022-07-30T08:41:57.262Z,4.30
2022-07-30T08:44:28.452Z,1.02
2022-07-30T08:47:00.781Z,2.65
2022-07-30T08:49:53.260Z,1.45
2022-07-30T08:52:27.307Z,1.92
2022-07-30T08:55:03.965Z,2.05
2022-07-30T08:57:36.453Z,1.45
2022-07-30T09:00:09.115Z,2.67
2022-07-30T09:02:38.452Z,3.50
2022-07-30T09:05:11.193Z,2.30
2022-07-30T09:07:41.206Z,3.33
2022-07-30T09:10:16.983Z,1.15
2022-07-30T09:12:49.831Z,5.22
2022-07-30T09:15:20.831Z,1.65
2022-07-30T09:17:57.201Z,3.15
2022-07-30T09:20:30.813Z,1.60
2022-07-30T09:23:02.862Z,7.13
2022-07-30T09:26:07.558Z,3.35
2022-07-30T09:29:17.750Z,5.13
2022-07-30T09:32:07.464Z,1.80
2022-07-30T09:35:17.881Z,2.00
2022-07-30T09:38:23.493Z,1.20
2022-07-30T09:40:57.242Z,2.53
2022-07-30T09:43:52.042Z,2.72
2022-07-30T09:46:51.377Z,4.35
2022-07-30T09:49:29.356Z,2.08
2022-07-30T09:51:59.475Z,1.63
2022-07-30T09:54:51.053Z,1.92
2022-07-30T09:57:27.792Z,2.88
2022-07-30T10:00:19.846Z,1.75
2022-07-30T10:03:34.216Z,3.20
2022-07-30T10:06:38.001Z,2.30
2022-07-30T10:09:50.746Z,2.58
2022-07-30T10:12:23.988Z,3.22
2022-07-30T10:14:57.001Z,3.28
2022-07-30T10:17:26.711Z,1.63
2022-07-30T10:20:22.289Z,2.90
2022-07-30T10:23:10.278Z,2.08
2022-07-30T10:26:04.458Z,2.17
2022-07-30T10:28:43.629Z,2.60
2022-07-30T10:31:49.088Z,5.35
2022-07-30T10:34:03.956Z,3.15
2022-07-30T10:36:37.418Z,3.42
2022-07-30T10:39:09.384Z,2.45
2022-07-30T10:41:53.995Z,3.25
2022-07-30T10:44:47.418Z,0.95
2022-07-30T10:47:19.436Z,1.83
2022-07-30T10:50:07.184Z,2.80
2022-07-30T10:52:53.615Z,1.42
2022-07-30T10:55:36.931Z,4.78
2022-07-30T10:58:10.668Z,3.95
2022-07-30T11:01:00.903Z,2.25
2022-07-30T11:03:41.275Z,2.67
2022-07-30T11:06:28.888Z,4.65
2022-07-30T11:09:01.510Z,1.10
2022-07-30T11:12:01.335Z,1.67
2022-07-30T11:15:06.673Z,2.42
2022-07-30T11:18:15.185Z,3.78
2022-07-30T11:20:48.710Z,1.17
2022-07-30T11:23:40.531Z,2.78
2022-07-30T11:26:14.283Z,1.95
2022-07-30T11:28:46.220Z,2.05
2022-07-30T11:31:56.615Z,1.30
2022-07-30T11:34:30.969Z,5.90
2022-07-30T11:37:31.776Z,1.20
2022-07-30T11:40:12.411Z,1.65
2022-07-30T11:42:44.603Z,3.28
2022-07-30T11:45:34.086Z,2.95
2022-07-30T11:48:03.363Z,1.30
2022-07-30T11:50:34.706Z,3.63
2022-07-30T11:53:05.794Z,1.65
2022-07-30T11:55:38.409Z,4.22
2022-07-30T11:58:11.805Z,1.23
2022-07-30T12:00:47.320Z,1.10
2022-07-30T12:03:18.001Z,1.25
2022-07-30T12:05:51.131Z,2.58
2022-07-30T12:08:32.760Z,4.65
2022-07-30T12:11:06.694Z,1.92
2022-07-30T12:13:43.461Z,2.63
2022-07-30T12:16:18.083Z,3.03
2022-07-30T12:21:17.536Z,2.97
2022-07-30T12:23:56.610Z,4.22
2022-07-30T12:26:28.402Z,3.63
2022-07-30T12:29:03.139Z,3.00
2022-07-30T12:31:38.498Z,0.98
2022-07-30T12:34:22.674Z,4.43
2022-07-30T12:36:52.005Z,1.73
2022-07-30T12:39:22.646Z,1.20
2022-07-30T12:41:53.642Z,1.52
2022-07-30T12:44:42.216Z,1.90
2022-07-30T12:47:25.837Z,2.33
2022-07-30T12:49:56.207Z,3.38
2022-07-30T12:58:02.854Z,2.45
2022-07-30T13:00:52.397Z,2.10
2022-07-30T13:03:24.714Z,3.28
2022-07-30T13:05:56.126Z,2.15
2022-07-30T13:08:50.105Z,4.65
2022-07-30T13:11:20.758Z,1.30
2022-07-30T13:13:52.837Z,1.83
2022-07-30T13:16:23.156Z,1.65
2022-07-30T13:18:52.923Z,4.50
2022-07-30T13:21:22.071Z,2.65
2022-07-30T13:23:54.123Z,1.38
2022-07-30T13:26:23.621Z,2.30
2022-07-30T13:28:58.662Z,1.88
2022-07-30T13:31:42.808Z,3.58
2022-07-30T13:34:13.215Z,3.38
2022-07-30T13:36:42.604Z,2.85
2022-07-30T13:39:12.877Z,2.00
2022-07-30T13:41:43.413Z,2.10
2022-07-30T13:44:14.614Z,4.07
2022-07-30T13:46:43.883Z,1.17
2022-07-30T13:49:13.127Z,3.85
2022-07-30T13:51:42.415Z,3.03
2022-07-30T13:54:13.863Z,3.17
2022-07-30T13:56:43.853Z,1.17
2022-07-30T13:59:15.054Z,2.05
2022-07-30T14:01:44.468Z,5.78
2022-07-30T14:04:13.739Z,1.73
2022-07-30T14:06:43.928Z,1.88
2022-07-30T14:09:13.119Z,1.10
2022-07-30T14:11:42.229Z,0.95
2022-07-30T14:14:11.588Z,2.28
2022-07-30T14:16:45.461Z,1.75
2022-07-30T14:19:23.140Z,1.10
2022-07-30T14:21:55.323Z,1.35
2022-07-30T14:24:24.779Z,1.20
2022-07-30T14:26:57.943Z,2.13
2022-07-30T14:29:27.963Z,2.80
2022-07-30T14:32:01.610Z,4.93
2022-07-30T14:34:30.954Z,2.08
2022-07-30T14:37:00.444Z,2.53
2022-07-30T14:39:29.909Z,1.90
2022-07-30T14:41:59.164Z,2.53
2022-07-30T14:44:28.425Z,3.25
2022-07-30T14:46:59.581Z,2.33
2022-07-30T14:49:29.093Z,2.42
2022-07-30T14:51:58.539Z,4.35
2022-07-30T14:54:27.842Z,5.32
2022-07-30T14:56:58.537Z,4.20
2022-07-30T14:59:30.187Z,2.13
2022-07-30T15:04:30.837Z,2.30
2022-07-30T15:07:00.071Z,4.28
2022-07-30T15:09:30.286Z,3.10
2022-07-30T15:12:22.743Z,3.83
2022-07-30T15:14:53.771Z,3.83
2022-07-30T15:17:26.100Z,3.08
2022-07-30T15:19:55.867Z,2.08
2022-07-30T15:22:25.560Z,1.40
2022-07-30T15:24:54.914Z,1.27
2022-07-30T15:27:33.190Z,2.15
2022-07-30T15:30:03.506Z,4.90
2022-07-30T15:32:35.611Z,2.92
2022-07-30T15:37:34.051Z,3.55
2022-07-30T15:40:03.468Z,4.55
2022-07-30T15:42:32.947Z,1.77
2022-07-30T15:45:17.221Z,1.83
2022-07-30T15:47:49.948Z,3.60
2022-07-30T15:50:19.541Z,2.38
2022-07-30T15:52:50.006Z,2.40
2022-07-30T15:55:19.354Z,1.52
2022-07-30T15:57:49.325Z,4.35
2022-07-30T16:00:18.969Z,4.57
2022-07-30T16:02:50.231Z,5.88
2022-07-30T16:05:19.567Z,5.05
2022-07-30T16:07:49.000Z,9.20
2022-07-30T16:10:18.376Z,5.75
2022-07-30T16:12:47.614Z,5.60
2022-07-30T16:15:16.942Z,10.05
2022-07-30T16:17:46.278Z,8.30
2022-07-30T16:20:17.454Z,6.70
2022-07-30T16:22:47.013Z,9.18
2022-07-30T16:25:16.284Z,7.30
2022-07-30T16:27:45.546Z,6.70
2022-07-30T16:30:15.181Z,10.00
2022-07-30T16:32:44.503Z,6.63
2022-07-30T16:35:13.702Z,8.05
2022-07-30T16:37:44.923Z,10.40
2022-07-30T16:40:15.170Z,4.03
2022-07-30T16:42:46.982Z,16.58
2022-07-30T16:45:17.410Z,18.92
2022-07-30T16:47:48.062Z,11.85
2022-07-30T16:50:17.415Z,6.35
2022-07-30T16:52:48.760Z,5.43
2022-07-30T16:57:46.893Z,6.72
2022-07-30T17:00:17.832Z,2.90
2022-07-30T17:02:47.134Z,4.93
2022-07-30T17:05:16.259Z,3.08
2022-07-30T17:07:47.484Z,4.20
2022-07-30T17:10:16.766Z,2.40
2022-07-30T17:12:57.184Z,2.65
2022-07-30T17:18:02.562Z,6.45
2022-07-30T17:20:33.728Z,4.25
2022-07-30T17:23:05.213Z,1.83
2022-07-30T17:25:34.554Z,3.30
2022-07-30T17:28:04.022Z,3.03
2022-07-30T17:30:33.460Z,3.22
2022-07-30T17:33:04.452Z,2.35
2022-07-30T17:35:36.207Z,2.17
2022-07-30T17:38:09.082Z,2.00
2022-07-30T17:40:38.277Z,3.28
2022-07-30T17:43:07.493Z,2.30
2022-07-30T17:45:38.048Z,2.67
2022-07-30T17:48:08.477Z,1.23
2022-07-30T17:50:38.771Z,3.53
2022-07-30T17:53:10.016Z,3.10
2022-07-30T17:55:39.480Z,3.97
2022-07-30T17:58:08.575Z,6.18
2022-07-30T18:00:37.993Z,3.55
2022-07-30T18:03:07.235Z,3.00
2022-07-30T18:05:36.702Z,3.97
2022-07-30T18:08:06.442Z,5.43
2022-07-30T18:10:37.565Z,4.18
2022-07-30T18:13:27.052Z,4.93
2022-07-30T18:15:57.766Z,2.65
2022-07-30T18:18:27.460Z,3.97
2022-07-30T18:20:56.745Z,3.90
2022-07-30T18:23:26.075Z,3.22
2022-07-30T18:26:06.378Z,4.63
2022-07-30T18:28:36.504Z,7.53
2022-07-30T18:31:06.594Z,7.50
2022-07-30T18:33:35.908Z,8.85
2022-07-30T18:36:13.483Z,4.28
2022-07-30T18:38:42.713Z,6.90
2022-07-30T18:41:13.883Z,9.18
2022-07-30T18:43:47.711Z,13.05
2022-07-30T18:46:17.989Z,7.60
2022-07-30T18:48:48.155Z,5.40
2022-07-30T18:51:18.267Z,7.35
2022-07-30T18:53:47.430Z,8.70
2022-07-30T18:56:18.498Z,8.30
2022-07-30T18:58:47.813Z,8.05
2022-07-30T19:01:17.909Z,10.85
2022-07-30T19:03:47.497Z,5.20
2022-07-30T19:06:16.758Z,4.00
2022-07-30T19:08:50.786Z,7.60
2022-07-30T19:11:22.413Z,9.10
2022-07-30T19:13:51.700Z,7.75
2022-07-30T19:16:20.831Z,9.18
2022-07-30T19:18:50.091Z,6.43
2022-07-30T19:21:19.339Z,6.53
2022-07-30T19:23:48.650Z,4.50
2022-07-30T19:26:18.624Z,5.00
2022-07-30T19:28:50.605Z,5.13
2022-07-30T19:31:19.951Z,9.68
2022-07-30T19:33:49.863Z,5.45
2022-07-30T19:36:20.620Z,10.18
2022-07-30T19:38:50.148Z,8.47
2022-07-30T19:41:19.699Z,10.90
2022-07-30T19:43:55.861Z,7.05
2022-07-30T19:46:28.297Z,7.13
2022-07-30T19:48:59.434Z,20.13
2022-07-30T19:52:09.473Z,16.55
2022-07-30T19:54:18.225Z,16.90
2022-07-30T19:56:47.360Z,18.25
2022-07-30T19:59:19.139Z,25.38
2022-07-30T20:02:08.518Z,17.08
2022-07-30T20:04:39.382Z,19.00
2022-07-30T20:07:12.954Z,17.20
2022-07-30T20:09:44.491Z,20.73
2022-07-30T20:12:14.184Z,20.13
2022-07-30T20:14:45.405Z,13.05
2022-07-30T20:17:15.358Z,16.85
2022-07-30T20:19:48.106Z,20.70
2022-07-30T20:22:18.555Z,18.75
2022-07-30T20:24:49.238Z,17.40
2022-07-30T20:27:37.345Z,15.27
2022-07-30T20:30:12.266Z,13.98
2022-07-30T20:32:46.401Z,12.57
2022-07-30T20:35:16.860Z,13.63
2022-07-30T20:37:54.713Z,13.27
2022-07-30T20:40:26.982Z,12.30
2022-07-30T20:42:57.111Z,10.43
2022-07-30T20:45:40.394Z,10.38
2022-07-30T20:48:17.086Z,12.43
2022-07-30T20:50:49.197Z,11.57
2022-07-30T20:53:19.421Z,11.18
2022-07-30T20:55:50.015Z,15.80
2022-07-30T20:58:20.832Z,17.02
2022-07-30T21:00:54.502Z,13.07
2022-07-30T21:03:24.172Z,8.63
2022-07-30T21:05:55.619Z,9.10
2022-07-30T21:08:25.300Z,7.90
2022-07-30T21:10:55.568Z,9.05
2022-07-30T21:13:26.054Z,10.25
2022-07-30T21:16:02.811Z,9.13
2022-07-30T21:18:33.526Z,10.85
2022-07-30T21:21:05.695Z,4.88
2022-07-30T21:23:35.682Z,9.05
2022-07-30T21:26:13.401Z,8.77
2022-07-30T21:28:43.274Z,8.80
2022-07-30T21:31:14.465Z,12.73
2022-07-30T21:33:43.857Z,13.85
2022-07-30T21:36:15.135Z,16.23
2022-07-30T21:38:44.985Z,13.15
2022-07-30T21:41:15.104Z,15.65
2022-07-30T21:43:45.554Z,10.60
2022-07-30T21:46:24.928Z,11.43
2022-07-30T21:48:59.290Z,13.98
2022-07-30T21:51:28.774Z,8.07
2022-07-30T21:53:59.666Z,9.97
2022-07-30T21:56:28.821Z,11.30
2022-07-30T21:58:58.181Z,9.25
2022-07-30T22:01:29.271Z,8.27
2022-07-30T22:04:07.928Z,9.05
2022-07-30T22:06:40.036Z,7.45
2022-07-30T22:12:01.473Z,9.52
2022-07-30T22:14:31.640Z,8.43
2022-07-30T22:17:04.404Z,8.95
2022-07-30T22:19:33.997Z,10.45
2022-07-30T22:22:26.054Z,12.88
2022-07-30T22:24:52.451Z,12.30
2022-07-30T22:27:22.271Z,15.02
2022-07-30T22:29:51.464Z,12.98
2022-07-30T22:32:27.330Z,14.95
2022-07-30T22:37:46.633Z,10.85
2022-07-30T22:40:17.203Z,14.35
2022-07-30T22:42:50.106Z,14.50
2022-07-30T22:45:34.063Z,15.57
2022-07-30T22:48:11.409Z,10.02
2022-07-30T22:53:23.357Z,11.18
2022-07-30T22:55:59.738Z,8.65
2022-07-30T22:58:29.781Z,8.20
2022-07-30T23:00:59.178Z,13.60
2022-07-30T23:03:30.437Z,17.73
2022-07-30T23:06:00.078Z,15.02
2022-07-30T23:08:30.956Z,14.27
2022-07-30T23:11:01.140Z,16.63
2022-07-30T23:13:31.866Z,6.88
2022-07-30T23:16:01.263Z,8.15
2022-07-30T23:18:32.426Z,6.97
2022-07-30T23:21:02.280Z,9.65
2022-07-30T23:23:35.174Z,7.35
2022-07-30T23:26:04.864Z,8.00
2022-07-30T23:28:34.177Z,8.75
2022-07-30T23:31:03.560Z,6.63
2022-07-30T23:33:34.828Z,5.65
2022-07-30T23:36:07.049Z,7.40
2022-07-30T23:38:36.562Z,4.65
2022-07-30T23:41:06.387Z,6.50
2022-07-30T23:43:36.004Z,6.20
2022-07-30T23:46:06.206Z,5.22
2022-07-30T23:48:42.474Z,4.70
2022-07-30T23:51:11.666Z,7.32
2022-07-30T23:53:40.820Z,7.35
2022-07-30T23:56:15.935Z,5.50
2022-07-30T23:58:45.547Z,5.10
